sensor_id;sensor_type;location;lat;lon;timestamp;P1;durP1;ratioP1;P2;durP2;ratioP2
22298;SDS011;11317;51.072;17.036;2023-12-28T00:01:27;26.48;;;11.27;;
22298;SDS011;11317;51.072;17.036;2023-12-28T00:03:54;22.73;;;10.52;;
22298;SDS011;11317;51.072;17.036;2023-12-28T00:06:20;23.55;;;11.40;;
22298;SDS011;11317;51.072;17.036;2023-12-28T00:08:46;30.38;;;10.90;;
22298;SDS011;11317;51.072;17.036;2023-12-28T00:11:13;23.70;;;11.20;;
22298;SDS011;11317;51.072;17.036;2023-12-28T00:13:39;23.27;;;12.32;;
22298;SDS011;11317;51.072;17.036;2023-12-28T00:16:06;22.88;;;10.73;;
22298;SDS011;11317;51.072;17.036;2023-12-28T00:18:32;26.45;;;11.25;;
22298;SDS011;11317;51.072;17.036;2023-12-28T00:20:58;26.42;;;11.32;;
22298;SDS011;11317;51.072;17.036;2023-12-28T00:23:24;20.05;;;10.13;;
22298;SDS011;11317;51.072;17.036;2023-12-28T00:25:50;22.08;;;10.13;;
22298;SDS011;11317;51.072;17.036;2023-12-28T00:28:16;28.63;;;10.85;;
22298;SDS011;11317;51.072;17.036;2023-12-28T00:30:43;19.83;;;7.95;;
22298;SDS011;11317;51.072;17.036;2023-12-28T00:33:09;24.55;;;9.90;;
22298;SDS011;11317;51.072;17.036;2023-12-28T00:35:35;23.33;;;10.13;;
22298;SDS011;11317;51.072;17.036;2023-12-28T00:38:01;28.55;;;10.70;;
22298;SDS011;11317;51.072;17.036;2023-12-28T00:40:27;24.02;;;10.68;;
22298;SDS011;11317;51.072;17.036;2023-12-28T00:42:53;17.67;;;8.52;;
22298;SDS011;11317;51.072;17.036;2023-12-28T00:45:19;26.45;;;10.27;;
22298;SDS011;11317;51.072;17.036;2023-12-28T00:47:46;25.90;;;10.65;;
22298;SDS011;11317;51.072;17.036;2023-12-28T00:50:12;16.92;;;8.65;;
22298;SDS011;11317;51.072;17.036;2023-12-28T00:52:40;21.08;;;10.90;;
22298;SDS011;11317;51.072;17.036;2023-12-28T00:55:06;24.88;;;10.20;;
22298;SDS011;11317;51.072;17.036;2023-12-28T00:57:33;22.92;;;9.63;;
22298;SDS011;11317;51.072;17.036;2023-12-28T00:59:59;21.08;;;9.95;;
22298;SDS011;11317;51.072;17.036;2023-12-28T01:02:25;20.70;;;9.80;;
22298;SDS011;11317;51.072;17.036;2023-12-28T01:04:51;23.48;;;10.18;;
22298;SDS011;11317;51.072;17.036;2023-12-28T01:07:18;25.40;;;8.95;;
22298;SDS011;11317;51.072;17.036;2023-12-28T01:09:44;22.90;;;9.88;;
22298;SDS011;11317;51.072;17.036;2023-12-28T01:12:10;19.73;;;10.18;;
22298;SDS011;11317;51.072;17.036;2023-12-28T01:14:36;22.98;;;9.85;;
22298;SDS011;11317;51.072;17.036;2023-12-28T01:17:02;23.30;;;10.57;;
22298;SDS011;11317;51.072;17.036;2023-12-28T01:19:28;23.58;;;9.18;;
22298;SDS011;11317;51.072;17.036;2023-12-28T01:21:55;20.35;;;8.38;;
22298;SDS011;11317;51.072;17.036;2023-12-28T01:24:21;22.10;;;8.02;;
22298;SDS011;11317;51.072;17.036;2023-12-28T01:26:47;16.98;;;8.20;;
22298;SDS011;11317;51.072;17.036;2023-12-28T01:29:13;20.45;;;8.52;;
22298;SDS011;11317;51.072;17.036;2023-12-28T01:31:39;22.30;;;9.63;;
22298;SDS011;11317;51.072;17.036;2023-12-28T01:34:06;23.70;;;8.38;;
22298;SDS011;11317;51.072;17.036;2023-12-28T01:36:34;20.10;;;9.05;;
22298;SDS011;11317;51.072;17.036;2023-12-28T01:39:00;25.23;;;9.77;;
22298;SDS011;11317;51.072;17.036;2023-12-28T01:41:26;25.95;;;10.40;;
22298;SDS011;11317;51.072;17.036;2023-12-28T01:43:52;18.83;;;10.55;;
22298;SDS011;11317;51.072;17.036;2023-12-28T01:46:19;19.17;;;9.23;;
22298;SDS011;11317;51.072;17.036;2023-12-28T01:48:47;23.90;;;10.68;;
22298;SDS011;11317;51.072;17.036;2023-12-28T01:51:14;24.92;;;9.98;;
22298;SDS011;11317;51.072;17.036;2023-12-28T01:53:44;24.63;;;10.38;;
22298;SDS011;11317;51.072;17.036;2023-12-28T01:56:11;22.95;;;10.23;;
22298;SDS011;11317;51.072;17.036;2023-12-28T01:58:37;15.85;;;9.82;;
22298;SDS011;11317;51.072;17.036;2023-12-28T02:01:05;21.48;;;9.02;;
22298;SDS011;11317;51.072;17.036;2023-12-28T02:03:31;21.45;;;9.68;;
22298;SDS011;11317;51.072;17.036;2023-12-28T02:05:57;20.98;;;10.32;;
22298;SDS011;11317;51.072;17.036;2023-12-28T02:08:25;27.65;;;10.50;;
22298;SDS011;11317;51.072;17.036;2023-12-28T02:10:51;27.00;;;9.32;;
22298;SDS011;11317;51.072;17.036;2023-12-28T02:13:18;17.63;;;8.35;;
22298;SDS011;11317;51.072;17.036;2023-12-28T02:15:44;20.05;;;9.07;;
22298;SDS011;11317;51.072;17.036;2023-12-28T02:18:14;19.40;;;9.32;;
22298;SDS011;11317;51.072;17.036;2023-12-28T02:20:45;25.05;;;9.95;;
22298;SDS011;11317;51.072;17.036;2023-12-28T02:23:11;25.15;;;10.50;;
22298;SDS011;11317;51.072;17.036;2023-12-28T02:25:37;19.23;;;7.65;;
22298;SDS011;11317;51.072;17.036;2023-12-28T02:28:04;18.08;;;8.30;;
22298;SDS011;11317;51.072;17.036;2023-12-28T02:30:30;19.38;;;10.15;;
22298;SDS011;11317;51.072;17.036;2023-12-28T02:35:33;24.20;;;9.77;;
22298;SDS011;11317;51.072;17.036;2023-12-28T02:38:05;21.15;;;9.57;;
22298;SDS011;11317;51.072;17.036;2023-12-28T02:40:35;22.48;;;8.98;;
22298;SDS011;11317;51.072;17.036;2023-12-28T02:43:08;21.43;;;9.60;;
22298;SDS011;11317;51.072;17.036;2023-12-28T02:45:35;21.55;;;10.07;;
22298;SDS011;11317;51.072;17.036;2023-12-28T02:48:01;18.25;;;8.38;;
22298;SDS011;11317;51.072;17.036;2023-12-28T02:50:27;20.15;;;8.95;;
22298;SDS011;11317;51.072;17.036;2023-12-28T02:52:57;15.73;;;8.95;;
22298;SDS011;11317;51.072;17.036;2023-12-28T02:55:23;22.48;;;7.82;;
22298;SDS011;11317;51.072;17.036;2023-12-28T02:57:50;18.63;;;8.60;;
22298;SDS011;11317;51.072;17.036;2023-12-28T03:00:16;15.95;;;8.98;;
22298;SDS011;11317;51.072;17.036;2023-12-28T03:02:43;17.25;;;7.72;;
22298;SDS011;11317;51.072;17.036;2023-12-28T03:05:09;14.57;;;8.35;;
22298;SDS011;11317;51.072;17.036;2023-12-28T03:07:35;17.58;;;7.95;;
22298;SDS011;11317;51.072;17.036;2023-12-28T03:10:02;18.25;;;7.13;;
22298;SDS011;11317;51.072;17.036;2023-12-28T03:12:29;18.33;;;8.60;;
22298;SDS011;11317;51.072;17.036;2023-12-28T03:14:55;20.10;;;7.90;;
22298;SDS011;11317;51.072;17.036;2023-12-28T03:17:21;17.48;;;8.57;;
22298;SDS011;11317;51.072;17.036;2023-12-28T03:19:48;16.00;;;8.75;;
22298;SDS011;11317;51.072;17.036;2023-12-28T03:22:14;16.15;;;6.50;;
22298;SDS011;11317;51.072;17.036;2023-12-28T03:24:40;18.08;;;7.00;;
22298;SDS011;11317;51.072;17.036;2023-12-28T03:27:06;16.10;;;8.75;;
22298;SDS011;11317;51.072;17.036;2023-12-28T03:29:33;15.25;;;6.75;;
22298;SDS011;11317;51.072;17.036;2023-12-28T03:31:59;16.95;;;7.32;;
22298;SDS011;11317;51.072;17.036;2023-12-28T03:34:26;13.43;;;5.85;;
22298;SDS011;11317;51.072;17.036;2023-12-28T03:36:54;15.70;;;6.45;;
22298;SDS011;11317;51.072;17.036;2023-12-28T03:39:20;13.70;;;6.78;;
22298;SDS011;11317;51.072;17.036;2023-12-28T03:41:49;10.63;;;5.90;;
22298;SDS011;11317;51.072;17.036;2023-12-28T03:44:15;12.88;;;5.65;;
22298;SDS011;11317;51.072;17.036;2023-12-28T03:46:41;7.82;;;5.10;;
22298;SDS011;11317;51.072;17.036;2023-12-28T03:49:08;7.90;;;4.18;;
22298;SDS011;11317;51.072;17.036;2023-12-28T03:51:34;9.88;;;4.93;;
22298;SDS011;11317;51.072;17.036;2023-12-28T03:54:00;9.07;;;4.32;;
22298;SDS011;11317;51.072;17.036;2023-12-28T03:56:27;12.10;;;4.30;;
22298;SDS011;11317;51.072;17.036;2023-12-28T03:58:54;6.95;;;4.30;;
22298;SDS011;11317;51.072;17.036;2023-12-28T04:01:20;10.13;;;4.95;;
22298;SDS011;11317;51.072;17.036;2023-12-28T04:03:47;13.80;;;4.70;;
22298;SDS011;11317;51.072;17.036;2023-12-28T04:06:14;8.15;;;4.07;;
22298;SDS011;11317;51.072;17.036;2023-12-28T04:08:40;10.18;;;3.40;;
22298;SDS011;11317;51.072;17.036;2023-12-28T04:11:06;3.85;;;2.63;;
22298;SDS011;11317;51.072;17.036;2023-12-28T04:13:33;5.10;;;3.15;;
22298;SDS011;11317;51.072;17.036;2023-12-28T04:15:59;4.90;;;3.03;;
22298;SDS011;11317;51.072;17.036;2023-12-28T04:18:25;7.45;;;3.70;;
22298;SDS011;11317;51.072;17.036;2023-12-28T04:20:51;5.40;;;3.15;;
22298;SDS011;11317;51.072;17.036;2023-12-28T04:23:17;6.15;;;3.35;;
22298;SDS011;11317;51.072;17.036;2023-12-28T04:25:44;4.88;;;2.45;;
22298;SDS011;11317;51.072;17.036;2023-12-28T04:28:10;6.45;;;3.28;;
22298;SDS011;11317;51.072;17.036;2023-12-28T04:30:36;5.13;;;2.63;;
22298;SDS011;11317;51.072;17.036;2023-12-28T04:33:02;7.03;;;3.97;;
22298;SDS011;11317;51.072;17.036;2023-12-28T04:35:28;10.77;;;4.35;;
22298;SDS011;11317;51.072;17.036;2023-12-28T04:37:54;3.75;;;2.28;;
22298;SDS011;11317;51.072;17.036;2023-12-28T04:40:20;4.45;;;2.35;;
22298;SDS011;11317;51.072;17.036;2023-12-28T04:42:47;4.65;;;2.40;;
22298;SDS011;11317;51.072;17.036;2023-12-28T04:45:13;3.53;;;2.33;;
22298;SDS011;11317;51.072;17.036;2023-12-28T04:47:39;4.93;;;2.45;;
22298;SDS011;11317;51.072;17.036;2023-12-28T04:50:06;8.07;;;2.83;;
22298;SDS011;11317;51.072;17.036;2023-12-28T04:52:32;2.45;;;1.77;;
22298;SDS011;11317;51.072;17.036;2023-12-28T04:54:58;2.38;;;2.15;;
22298;SDS011;11317;51.072;17.036;2023-12-28T04:57:25;3.25;;;1.85;;
22298;SDS011;11317;51.072;17.036;2023-12-28T04:59:53;7.68;;;3.50;;
22298;SDS011;11317;51.072;17.036;2023-12-28T05:02:19;6.40;;;2.55;;
22298;SDS011;11317;51.072;17.036;2023-12-28T05:04:46;8.80;;;2.92;;
22298;SDS011;11317;51.072;17.036;2023-12-28T05:07:12;4.70;;;1.85;;
22298;SDS011;11317;51.072;17.036;2023-12-28T05:09:38;3.47;;;2.53;;
22298;SDS011;11317;51.072;17.036;2023-12-28T05:12:04;6.55;;;2.10;;
22298;SDS011;11317;51.072;17.036;2023-12-28T05:14:30;2.60;;;2.03;;
22298;SDS011;11317;51.072;17.036;2023-12-28T05:16:57;4.97;;;2.42;;
22298;SDS011;11317;51.072;17.036;2023-12-28T05:19:23;6.35;;;3.33;;
22298;SDS011;11317;51.072;17.036;2023-12-28T05:21:49;5.80;;;2.88;;
22298;SDS011;11317;51.072;17.036;2023-12-28T05:24:15;5.70;;;2.65;;
22298;SDS011;11317;51.072;17.036;2023-12-28T05:26:41;6.78;;;3.03;;
22298;SDS011;11317;51.072;17.036;2023-12-28T05:29:07;5.93;;;2.35;;
22298;SDS011;11317;51.072;17.036;2023-12-28T05:31:33;2.45;;;2.10;;
22298;SDS011;11317;51.072;17.036;2023-12-28T05:34:00;4.35;;;1.90;;
22298;SDS011;11317;51.072;17.036;2023-12-28T05:36:26;2.45;;;2.05;;
22298;SDS011;11317;51.072;17.036;2023-12-28T05:38:52;4.15;;;2.22;;
22298;SDS011;11317;51.072;17.036;2023-12-28T05:41:18;7.90;;;2.90;;
22298;SDS011;11317;51.072;17.036;2023-12-28T05:43:44;6.05;;;3.78;;
22298;SDS011;11317;51.072;17.036;2023-12-28T05:46:10;7.60;;;3.10;;
22298;SDS011;11317;51.072;17.036;2023-12-28T05:48:37;4.45;;;2.60;;
22298;SDS011;11317;51.072;17.036;2023-12-28T05:51:03;8.90;;;3.42;;
22298;SDS011;11317;51.072;17.036;2023-12-28T05:53:29;5.25;;;2.90;;
22298;SDS011;11317;51.072;17.036;2023-12-28T05:55:55;7.05;;;2.83;;
22298;SDS011;11317;51.072;17.036;2023-12-28T05:58:21;2.97;;;1.95;;
22298;SDS011;11317;51.072;17.036;2023-12-28T06:00:47;3.78;;;2.45;;
22298;SDS011;11317;51.072;17.036;2023-12-28T06:03:13;5.35;;;3.28;;
22298;SDS011;11317;51.072;17.036;2023-12-28T06:05:39;4.05;;;2.53;;
22298;SDS011;11317;51.072;17.036;2023-12-28T06:08:06;3.17;;;2.20;;
22298;SDS011;11317;51.072;17.036;2023-12-28T06:10:31;3.65;;;2.63;;
22298;SDS011;11317;51.072;17.036;2023-12-28T06:12:57;2.70;;;1.83;;
22298;SDS011;11317;51.072;17.036;2023-12-28T06:15:23;5.82;;;2.92;;
22298;SDS011;11317;51.072;17.036;2023-12-28T06:17:50;11.10;;;4.57;;
22298;SDS011;11317;51.072;17.036;2023-12-28T06:20:16;9.15;;;3.10;;
22298;SDS011;11317;51.072;17.036;2023-12-28T06:22:42;10.75;;;4.75;;
22298;SDS011;11317;51.072;17.036;2023-12-28T06:25:13;5.78;;;3.10;;
22298;SDS011;11317;51.072;17.036;2023-12-28T06:27:38;5.82;;;2.83;;
22298;SDS011;11317;51.072;17.036;2023-12-28T06:30:04;5.75;;;2.70;;
22298;SDS011;11317;51.072;17.036;2023-12-28T06:32:31;3.55;;;2.17;;
22298;SDS011;11317;51.072;17.036;2023-12-28T06:34:57;4.05;;;2.42;;
22298;SDS011;11317;51.072;17.036;2023-12-28T06:37:23;6.22;;;2.08;;
22298;SDS011;11317;51.072;17.036;2023-12-28T06:39:49;5.00;;;2.15;;
22298;SDS011;11317;51.072;17.036;2023-12-28T06:42:15;2.08;;;1.65;;
22298;SDS011;11317;51.072;17.036;2023-12-28T06:44:41;5.93;;;2.08;;
22298;SDS011;11317;51.072;17.036;2023-12-28T06:47:08;3.10;;;1.67;;
22298;SDS011;11317;51.072;17.036;2023-12-28T06:49:34;2.97;;;2.08;;
22298;SDS011;11317;51.072;17.036;2023-12-28T06:52:00;3.20;;;1.85;;
22298;SDS011;11317;51.072;17.036;2023-12-28T06:54:26;1.50;;;1.40;;
22298;SDS011;11317;51.072;17.036;2023-12-28T06:56:52;3.17;;;1.67;;
22298;SDS011;11317;51.072;17.036;2023-12-28T06:59:18;1.10;;;1.00;;
22298;SDS011;11317;51.072;17.036;2023-12-28T07:01:44;2.30;;;1.20;;
22298;SDS011;11317;51.072;17.036;2023-12-28T07:04:13;2.00;;;1.08;;
22298;SDS011;11317;51.072;17.036;2023-12-28T07:06:39;1.42;;;1.10;;
22298;SDS011;11317;51.072;17.036;2023-12-28T07:09:05;3.95;;;1.15;;
22298;SDS011;11317;51.072;17.036;2023-12-28T07:11:31;2.67;;;1.10;;
22298;SDS011;11317;51.072;17.036;2023-12-28T07:13:57;2.97;;;1.20;;
22298;SDS011;11317;51.072;17.036;2023-12-28T07:16:24;1.25;;;1.08;;
22298;SDS011;11317;51.072;17.036;2023-12-28T07:18:51;2.80;;;1.20;;
22298;SDS011;11317;51.072;17.036;2023-12-28T07:21:17;4.63;;;1.60;;
22298;SDS011;11317;51.072;17.036;2023-12-28T07:23:44;2.03;;;1.40;;
22298;SDS011;11317;51.072;17.036;2023-12-28T07:26:14;1.67;;;1.00;;
22298;SDS011;11317;51.072;17.036;2023-12-28T07:28:40;4.95;;;1.60;;
22298;SDS011;11317;51.072;17.036;2023-12-28T07:31:10;2.42;;;1.35;;
22298;SDS011;11317;51.072;17.036;2023-12-28T07:33:36;3.22;;;1.20;;
22298;SDS011;11317;51.072;17.036;2023-12-28T07:36:02;2.60;;;1.73;;
22298;SDS011;11317;51.072;17.036;2023-12-28T07:38:31;3.20;;;1.85;;
22298;SDS011;11317;51.072;17.036;2023-12-28T07:40:57;2.58;;;1.52;;
22298;SDS011;11317;51.072;17.036;2023-12-28T07:43:26;5.97;;;1.92;;
22298;SDS011;11317;51.072;17.036;2023-12-28T07:45:52;1.25;;;1.10;;
22298;SDS011;11317;51.072;17.036;2023-12-28T07:48:18;3.22;;;1.38;;
22298;SDS011;11317;51.072;17.036;2023-12-28T07:50:45;3.00;;;1.40;;
22298;SDS011;11317;51.072;17.036;2023-12-28T07:53:11;2.05;;;1.20;;
22298;SDS011;11317;51.072;17.036;2023-12-28T07:55:37;2.03;;;1.25;;
22298;SDS011;11317;51.072;17.036;2023-12-28T07:58:03;3.70;;;1.30;;
22298;SDS011;11317;51.072;17.036;2023-12-28T08:00:29;2.05;;;1.60;;
22298;SDS011;11317;51.072;17.036;2023-12-28T08:02:55;2.47;;;1.30;;
22298;SDS011;11317;51.072;17.036;2023-12-28T08:05:22;3.15;;;1.50;;
22298;SDS011;11317;51.072;17.036;2023-12-28T08:07:48;1.48;;;1.02;;
22298;SDS011;11317;51.072;17.036;2023-12-28T08:10:14;3.13;;;1.60;;
22298;SDS011;11317;51.072;17.036;2023-12-28T08:13:00;4.38;;;1.90;;
22298;SDS011;11317;51.072;17.036;2023-12-28T08:15:26;3.83;;;1.77;;
22298;SDS011;11317;51.072;17.036;2023-12-28T08:17:52;8.05;;;2.95;;
22298;SDS011;11317;51.072;17.036;2023-12-28T08:20:18;10.35;;;3.80;;
22298;SDS011;11317;51.072;17.036;2023-12-28T08:22:45;4.45;;;2.10;;
22298;SDS011;11317;51.072;17.036;2023-12-28T08:25:11;10.93;;;4.60;;
22298;SDS011;11317;51.072;17.036;2023-12-28T08:27:37;16.08;;;10.45;;
22298;SDS011;11317;51.072;17.036;2023-12-28T08:30:04;7.93;;;2.63;;
22298;SDS011;11317;51.072;17.036;2023-12-28T08:32:31;2.80;;;1.83;;
22298;SDS011;11317;51.072;17.036;2023-12-28T08:34:57;6.07;;;2.30;;
22298;SDS011;11317;51.072;17.036;2023-12-28T08:37:23;6.20;;;2.03;;
22298;SDS011;11317;51.072;17.036;2023-12-28T08:39:50;4.80;;;1.88;;
22298;SDS011;11317;51.072;17.036;2023-12-28T08:42:16;3.75;;;1.73;;
22298;SDS011;11317;51.072;17.036;2023-12-28T08:44:42;8.10;;;1.80;;
22298;SDS011;11317;51.072;17.036;2023-12-28T08:47:08;5.15;;;1.88;;
22298;SDS011;11317;51.072;17.036;2023-12-28T08:49:34;5.38;;;1.90;;
22298;SDS011;11317;51.072;17.036;2023-12-28T08:52:01;2.65;;;1.33;;
22298;SDS011;11317;51.072;17.036;2023-12-28T08:54:27;3.58;;;1.52;;
22298;SDS011;11317;51.072;17.036;2023-12-28T08:56:53;4.07;;;1.35;;
22298;SDS011;11317;51.072;17.036;2023-12-28T08:59:19;4.35;;;1.75;;
22298;SDS011;11317;51.072;17.036;2023-12-28T09:01:45;6.10;;;1.55;;
22298;SDS011;11317;51.072;17.036;2023-12-28T09:04:12;4.22;;;1.70;;
22298;SDS011;11317;51.072;17.036;2023-12-28T09:06:39;6.13;;;1.80;;
22298;SDS011;11317;51.072;17.036;2023-12-28T09:09:05;3.05;;;1.63;;
22298;SDS011;11317;51.072;17.036;2023-12-28T09:11:31;3.42;;;1.17;;
22298;SDS011;11317;51.072;17.036;2023-12-28T09:13:57;4.53;;;1.90;;
22298;SDS011;11317;51.072;17.036;2023-12-28T09:16:24;4.38;;;1.80;;
22298;SDS011;11317;51.072;17.036;2023-12-28T09:18:51;4.05;;;1.60;;
22298;SDS011;11317;51.072;17.036;2023-12-28T09:21:17;2.63;;;1.50;;
22298;SDS011;11317;51.072;17.036;2023-12-28T09:23:43;3.97;;;1.35;;
22298;SDS011;11317;51.072;17.036;2023-12-28T09:26:09;4.43;;;1.92;;
22298;SDS011;11317;51.072;17.036;2023-12-28T09:28:35;3.05;;;1.60;;
22298;SDS011;11317;51.072;17.036;2023-12-28T09:31:02;2.88;;;1.88;;
22298;SDS011;11317;51.072;17.036;2023-12-28T09:33:29;7.30;;;1.70;;
22298;SDS011;11317;51.072;17.036;2023-12-28T09:35:55;2.85;;;1.77;;
22298;SDS011;11317;51.072;17.036;2023-12-28T09:38:21;4.47;;;1.67;;
22298;SDS011;11317;51.072;17.036;2023-12-28T09:40:48;3.03;;;1.75;;
22298;SDS011;11317;51.072;17.036;2023-12-28T09:45:48;2.95;;;2.05;;
22298;SDS011;11317;51.072;17.036;2023-12-28T09:48:18;2.13;;;1.30;;
22298;SDS011;11317;51.072;17.036;2023-12-28T09:50:45;2.33;;;1.20;;
22298;SDS011;11317;51.072;17.036;2023-12-28T09:53:12;1.75;;;1.30;;
22298;SDS011;11317;51.072;17.036;2023-12-28T09:55:38;2.05;;;1.45;;
22298;SDS011;11317;51.072;17.036;2023-12-28T09:58:04;2.90;;;1.90;;
22298;SDS011;11317;51.072;17.036;2023-12-28T10:00:32;4.13;;;1.90;;
22298;SDS011;11317;51.072;17.036;2023-12-28T10:02:57;3.15;;;1.77;;
22298;SDS011;11317;51.072;17.036;2023-12-28T10:05:24;3.92;;;2.03;;
22298;SDS011;11317;51.072;17.036;2023-12-28T10:07:50;4.10;;;1.83;;
22298;SDS011;11317;51.072;17.036;2023-12-28T10:10:16;2.30;;;1.45;;
22298;SDS011;11317;51.072;17.036;2023-12-28T10:12:42;5.60;;;1.70;;
22298;SDS011;11317;51.072;17.036;2023-12-28T10:15:09;3.08;;;1.90;;
22298;SDS011;11317;51.072;17.036;2023-12-28T10:17:35;2.92;;;1.65;;
22298;SDS011;11317;51.072;17.036;2023-12-28T10:20:04;2.25;;;1.48;;
22298;SDS011;11317;51.072;17.036;2023-12-28T10:22:35;2.17;;;1.83;;
22298;SDS011;11317;51.072;17.036;2023-12-28T10:25:02;3.50;;;1.92;;
22298;SDS011;11317;51.072;17.036;2023-12-28T10:27:28;2.30;;;1.50;;
22298;SDS011;11317;51.072;17.036;2023-12-28T10:29:55;1.98;;;1.55;;
22298;SDS011;11317;51.072;17.036;2023-12-28T10:32:24;4.13;;;2.03;;
22298;SDS011;11317;51.072;17.036;2023-12-28T10:34:51;5.90;;;1.83;;
22298;SDS011;11317;51.072;17.036;2023-12-28T10:37:18;4.10;;;1.85;;
22298;SDS011;11317;51.072;17.036;2023-12-28T10:39:49;5.50;;;2.30;;
22298;SDS011;11317;51.072;17.036;2023-12-28T10:42:28;2.60;;;1.65;;
22298;SDS011;11317;51.072;17.036;2023-12-28T10:45:02;2.75;;;1.67;;
22298;SDS011;11317;51.072;17.036;2023-12-28T10:47:33;3.67;;;1.90;;
22298;SDS011;11317;51.072;17.036;2023-12-28T10:50:04;4.93;;;1.98;;
22298;SDS011;11317;51.072;17.036;2023-12-28T10:52:31;3.88;;;1.65;;
22298;SDS011;11317;51.072;17.036;2023-12-28T10:57:29;4.78;;;2.50;;
22298;SDS011;11317;51.072;17.036;2023-12-28T11:00:09;2.08;;;1.65;;
22298;SDS011;11317;51.072;17.036;2023-12-28T11:05:09;3.10;;;1.45;;
22298;SDS011;11317;51.072;17.036;2023-12-28T11:07:40;3.03;;;1.38;;
22298;SDS011;11317;51.072;17.036;2023-12-28T11:10:07;3.42;;;1.63;;
22298;SDS011;11317;51.072;17.036;2023-12-28T11:12:35;5.18;;;2.17;;
22298;SDS011;11317;51.072;17.036;2023-12-28T11:15:02;2.53;;;1.75;;
22298;SDS011;11317;51.072;17.036;2023-12-28T11:17:28;3.60;;;2.08;;
22298;SDS011;11317;51.072;17.036;2023-12-28T11:19:56;5.35;;;2.20;;
22298;SDS011;11317;51.072;17.036;2023-12-28T11:22:23;2.35;;;2.00;;
22298;SDS011;11317;51.072;17.036;2023-12-28T11:24:54;4.53;;;2.10;;
22298;SDS011;11317;51.072;17.036;2023-12-28T11:27:21;3.17;;;1.52;;
22298;SDS011;11317;51.072;17.036;2023-12-28T11:29:48;4.88;;;1.60;;
22298;SDS011;11317;51.072;17.036;2023-12-28T11:32:17;1.98;;;1.40;;
22298;SDS011;11317;51.072;17.036;2023-12-28T11:34:43;3.65;;;1.95;;
22298;SDS011;11317;51.072;17.036;2023-12-28T11:37:12;2.75;;;1.70;;
22298;SDS011;11317;51.072;17.036;2023-12-28T11:39:43;1.88;;;1.30;;
22298;SDS011;11317;51.072;17.036;2023-12-28T11:42:10;2.78;;;1.70;;
22298;SDS011;11317;51.072;17.036;2023-12-28T11:44:38;4.65;;;2.00;;
22298;SDS011;11317;51.072;17.036;2023-12-28T11:47:14;5.55;;;1.90;;
22298;SDS011;11317;51.072;17.036;2023-12-28T11:49:41;4.15;;;1.95;;
22298;SDS011;11317;51.072;17.036;2023-12-28T11:52:08;4.20;;;1.98;;
22298;SDS011;11317;51.072;17.036;2023-12-28T11:54:36;2.60;;;1.58;;
22298;SDS011;11317;51.072;17.036;2023-12-28T11:57:02;2.75;;;1.48;;
22298;SDS011;11317;51.072;17.036;2023-12-28T11:59:28;4.28;;;2.22;;
22298;SDS011;11317;51.072;17.036;2023-12-28T12:01:56;3.05;;;2.20;;
22298;SDS011;11317;51.072;17.036;2023-12-28T12:04:22;3.50;;;1.88;;
22298;SDS011;11317;51.072;17.036;2023-12-28T12:06:48;3.28;;;1.75;;
22298;SDS011;11317;51.072;17.036;2023-12-28T12:09:16;5.68;;;2.60;;
22298;SDS011;11317;51.072;17.036;2023-12-28T12:11:47;4.22;;;2.58;;
22298;SDS011;11317;51.072;17.036;2023-12-28T12:14:14;4.15;;;2.83;;
22298;SDS011;11317;51.072;17.036;2023-12-28T12:16:40;3.85;;;2.30;;
22298;SDS011;11317;51.072;17.036;2023-12-28T12:19:07;4.47;;;2.30;;
22298;SDS011;11317;51.072;17.036;2023-12-28T12:21:33;4.10;;;2.25;;
22298;SDS011;11317;51.072;17.036;2023-12-28T12:23:59;4.68;;;2.22;;
22298;SDS011;11317;51.072;17.036;2023-12-28T12:26:30;4.07;;;2.47;;
22298;SDS011;11317;51.072;17.036;2023-12-28T12:28:56;3.03;;;2.22;;
22298;SDS011;11317;51.072;17.036;2023-12-28T12:31:23;4.28;;;2.17;;
22298;SDS011;11317;51.072;17.036;2023-12-28T12:33:51;5.60;;;2.22;;
22298;SDS011;11317;51.072;17.036;2023-12-28T12:36:17;4.22;;;2.40;;
22298;SDS011;11317;51.072;17.036;2023-12-28T12:38:43;5.35;;;2.00;;
22298;SDS011;11317;51.072;17.036;2023-12-28T12:41:10;5.22;;;2.53;;
22298;SDS011;11317;51.072;17.036;2023-12-28T12:43:42;6.93;;;2.05;;
22298;SDS011;11317;51.072;17.036;2023-12-28T12:46:11;3.97;;;1.67;;
22298;SDS011;11317;51.072;17.036;2023-12-28T12:48:38;7.38;;;2.80;;
22298;SDS011;11317;51.072;17.036;2023-12-28T12:51:05;4.63;;;2.47;;
22298;SDS011;11317;51.072;17.036;2023-12-28T12:53:35;7.95;;;3.88;;
22298;SDS011;11317;51.072;17.036;2023-12-28T12:56:05;8.65;;;3.88;;
22298;SDS011;11317;51.072;17.036;2023-12-28T12:58:32;9.30;;;4.18;;
22298;SDS011;11317;51.072;17.036;2023-12-28T13:00:58;8.15;;;3.20;;
22298;SDS011;11317;51.072;17.036;2023-12-28T13:03:28;8.20;;;3.22;;
22298;SDS011;11317;51.072;17.036;2023-12-28T13:05:55;3.53;;;2.13;;
22298;SDS011;11317;51.072;17.036;2023-12-28T13:08:21;3.78;;;2.28;;
22298;SDS011;11317;51.072;17.036;2023-12-28T13:10:47;2.88;;;1.63;;
22298;SDS011;11317;51.072;17.036;2023-12-28T13:13:15;2.58;;;1.52;;
22298;SDS011;11317;51.072;17.036;2023-12-28T13:15:41;5.72;;;3.58;;
22298;SDS011;11317;51.072;17.036;2023-12-28T13:18:07;3.33;;;2.08;;
22298;SDS011;11317;51.072;17.036;2023-12-28T13:20:33;5.72;;;1.98;;
22298;SDS011;11317;51.072;17.036;2023-12-28T13:23:00;7.45;;;1.92;;
22298;SDS011;11317;51.072;17.036;2023-12-28T13:25:26;4.25;;;2.10;;
22298;SDS011;11317;51.072;17.036;2023-12-28T13:27:52;4.60;;;1.98;;
22298;SDS011;11317;51.072;17.036;2023-12-28T13:30:18;4.13;;;2.35;;
22298;SDS011;11317;51.072;17.036;2023-12-28T13:32:46;3.38;;;1.95;;
22298;SDS011;11317;51.072;17.036;2023-12-28T13:35:12;4.80;;;2.80;;
22298;SDS011;11317;51.072;17.036;2023-12-28T13:37:39;3.50;;;2.30;;
22298;SDS011;11317;51.072;17.036;2023-12-28T13:40:06;4.65;;;2.30;;
22298;SDS011;11317;51.072;17.036;2023-12-28T13:42:32;5.72;;;2.30;;
22298;SDS011;11317;51.072;17.036;2023-12-28T13:44:59;6.20;;;2.08;;
22298;SDS011;11317;51.072;17.036;2023-12-28T13:47:25;3.40;;;2.05;;
22298;SDS011;11317;51.072;17.036;2023-12-28T13:49:51;14.77;;;2.90;;
22298;SDS011;11317;51.072;17.036;2023-12-28T13:52:18;7.53;;;2.25;;
22298;SDS011;11317;51.072;17.036;2023-12-28T13:54:44;5.07;;;2.42;;
22298;SDS011;11317;51.072;17.036;2023-12-28T13:57:10;7.35;;;2.67;;
22298;SDS011;11317;51.072;17.036;2023-12-28T13:59:38;3.78;;;2.17;;
22298;SDS011;11317;51.072;17.036;2023-12-28T14:02:04;7.35;;;2.70;;
22298;SDS011;11317;51.072;17.036;2023-12-28T14:04:31;5.90;;;2.28;;
22298;SDS011;11317;51.072;17.036;2023-12-28T14:06:57;5.65;;;2.40;;
22298;SDS011;11317;51.072;17.036;2023-12-28T14:09:23;5.53;;;2.88;;
22298;SDS011;11317;51.072;17.036;2023-12-28T14:11:49;3.67;;;2.55;;
22298;SDS011;11317;51.072;17.036;2023-12-28T14:14:15;4.80;;;2.72;;
22298;SDS011;11317;51.072;17.036;2023-12-28T14:16:42;4.53;;;2.67;;
22298;SDS011;11317;51.072;17.036;2023-12-28T14:19:07;4.32;;;2.40;;
22298;SDS011;11317;51.072;17.036;2023-12-28T14:21:37;5.15;;;2.85;;
22298;SDS011;11317;51.072;17.036;2023-12-28T14:24:04;3.63;;;2.40;;
22298;SDS011;11317;51.072;17.036;2023-12-28T14:26:33;4.22;;;2.65;;
22298;SDS011;11317;51.072;17.036;2023-12-28T14:29:00;5.32;;;3.03;;
22298;SDS011;11317;51.072;17.036;2023-12-28T14:31:31;5.82;;;3.03;;
22298;SDS011;11317;51.072;17.036;2023-12-28T14:33:58;4.38;;;3.00;;
22298;SDS011;11317;51.072;17.036;2023-12-28T14:36:27;4.97;;;2.40;;